createdAt,value
2022-08-02T00:00:44.117Z,21.32
2022-08-02T00:02:47.418Z,21.34
2022-08-02T00:04:49.397Z,21.34
2022-08-02T00:06:51.383Z,21.34
2022-08-02T00:08:53.969Z,21.32
2022-08-02T00:10:55.861Z,21.31
2022-08-02T00:12:58.017Z,21.30
2022-08-02T00:14:59.770Z,21.22
2022-08-02T00:17:01.603Z,21.25
2022-08-02T00:19:03.945Z,21.30
2022-08-02T00:21:05.993Z,21.19
2022-08-02T00:23:07.761Z,21.25
2022-08-02T00:25:09.763Z,21.27
2022-08-02T00:27:11.555Z,21.11
2022-08-02T00:29:13.773Z,21.20
2022-08-02T00:31:15.683Z,21.15
2022-08-02T00:33:17.636Z,21.15
2022-08-02T00:35:40.698Z,21.16
2022-08-02T00:37:42.848Z,21.15
2022-08-02T00:39:44.712Z,21.14
2022-08-02T00:41:52.023Z,21.12
2022-08-02T00:43:55.220Z,21.12
2022-08-02T00:46:02.255Z,21.08
2022-08-02T00:48:07.773Z,21.00
2022-08-02T00:50:10.087Z,21.00
2022-08-02T00:52:12.198Z,20.94
2022-08-02T00:54:14.932Z,20.93
2022-08-02T00:56:16.745Z,20.90
2022-08-02T00:58:18.600Z,20.85
2022-08-02T01:00:20.965Z,20.90
2022-08-02T01:02:22.860Z,20.83
2022-08-02T01:04:30.749Z,20.81
2022-08-02T01:06:34.392Z,20.82
2022-08-02T01:08:38.818Z,20.77
2022-08-02T01:10:41.162Z,20.80
2022-08-02T01:12:43.175Z,20.74
2022-08-02T01:14:48.210Z,20.71
2022-08-02T01:16:54.794Z,20.72
2022-08-02T01:19:02.061Z,20.70
2022-08-02T01:21:22.471Z,20.54
2022-08-02T01:23:45.736Z,20.55
2022-08-02T01:25:59.252Z,20.54
2022-08-02T01:28:22.207Z,20.54
2022-08-02T01:30:24.486Z,20.57
2022-08-02T01:32:34.102Z,20.56
2022-08-02T01:34:41.643Z,20.47
2022-08-02T01:37:09.218Z,20.48
2022-08-02T01:39:27.361Z,20.47
2022-08-02T01:41:35.693Z,20.45
2022-08-02T01:43:40.340Z,20.43
2022-08-02T01:45:43.719Z,20.41
2022-08-02T01:47:48.182Z,20.41
2022-08-02T01:49:53.132Z,20.33
2022-08-02T01:52:14.997Z,20.35
2022-08-02T01:54:22.269Z,20.33
2022-08-02T01:56:24.639Z,20.31
2022-08-02T01:58:30.103Z,20.27
2022-08-02T02:00:35.441Z,20.25
2022-08-02T02:02:41.738Z,20.27
2022-08-02T02:04:46.502Z,20.27
2022-08-02T02:06:50.519Z,20.23
2022-08-02T02:08:53.236Z,20.23
2022-08-02T02:10:57.119Z,20.25
2022-08-02T02:13:04.321Z,20.20
2022-08-02T02:15:10.473Z,20.18
2022-08-02T02:17:52.770Z,20.19
2022-08-02T02:19:37.527Z,20.18
2022-08-02T02:21:39.413Z,20.10
2022-08-02T02:23:43.732Z,20.12
2022-08-02T02:25:47.393Z,20.10
2022-08-02T02:28:07.378Z,20.05
2022-08-02T02:30:10.095Z,20.07
2022-08-02T02:32:15.049Z,20.03
2022-08-02T02:34:32.384Z,19.97
2022-08-02T02:36:36.480Z,20.00
2022-08-02T02:38:39.989Z,19.95
2022-08-02T02:40:42.348Z,19.96
2022-08-02T02:42:49.352Z,19.97
2022-08-02T02:44:52.630Z,19.89
2022-08-02T02:46:55.794Z,19.88
2022-08-02T02:48:58.912Z,19.89
2022-08-02T02:51:03.846Z,20.00
2022-08-02T02:53:07.150Z,20.02
2022-08-02T02:55:10.427Z,20.05
2022-08-02T02:57:12.846Z,19.98
2022-08-02T02:59:15.567Z,19.96
2022-08-02T03:01:56.212Z,19.95
2022-08-02T03:03:55.216Z,19.91
2022-08-02T03:05:57.170Z,19.84
2022-08-02T03:07:59.161Z,19.82
2022-08-02T03:10:02.699Z,19.82
2022-08-02T03:12:05.622Z,19.78
2022-08-02T03:14:11.494Z,19.61
2022-08-02T03:16:13.502Z,19.59
2022-08-02T03:18:35.445Z,19.71
2022-08-02T03:20:37.365Z,19.77
2022-08-02T03:22:40.755Z,19.79
2022-08-02T03:24:42.580Z,19.69
2022-08-02T03:26:44.471Z,19.67
2022-08-02T03:28:46.304Z,19.67
2022-08-02T03:30:48.142Z,19.67
2022-08-02T03:32:50.470Z,19.68
2022-08-02T03:34:52.569Z,19.63
2022-08-02T03:36:56.818Z,19.63
2022-08-02T03:39:00.411Z,19.68
2022-08-02T03:41:03.980Z,19.63
2022-08-02T03:43:06.731Z,19.64
2022-08-02T03:45:11.673Z,19.64
2022-08-02T03:47:14.292Z,19.61
2022-08-02T03:49:18.418Z,19.62
2022-08-02T03:51:20.957Z,19.65
2022-08-02T03:53:22.971Z,19.58
2022-08-02T03:55:25.409Z,19.64
2022-08-02T03:57:27.200Z,19.65
2022-08-02T03:59:29.005Z,19.68
2022-08-02T04:01:34.408Z,19.74
2022-08-02T04:03:36.364Z,19.76
2022-08-02T04:05:38.264Z,19.76
2022-08-02T04:08:33.185Z,19.84
2022-08-02T04:10:21.907Z,19.83
2022-08-02T04:12:23.682Z,19.85
2022-08-02T04:14:26.664Z,19.80
2022-08-02T04:16:34.833Z,19.80
2022-08-02T04:18:42.606Z,19.79
2022-08-02T04:20:48.878Z,19.82
2022-08-02T04:22:57.707Z,19.82
2022-08-02T04:25:03.827Z,19.75
2022-08-02T04:27:50.107Z,19.85
2022-08-02T04:29:30.898Z,19.89
2022-08-02T04:31:32.963Z,19.93
2022-08-02T04:33:36.592Z,19.97
2022-08-02T04:35:38.667Z,19.92
2022-08-02T04:38:05.599Z,20.08
2022-08-02T04:40:02.928Z,20.06
2022-08-02T04:42:05.015Z,20.08
2022-08-02T04:44:06.969Z,20.16
2022-08-02T04:46:08.770Z,20.20
2022-08-02T04:48:10.584Z,20.30
2022-08-02T04:50:12.404Z,20.34
2022-08-02T04:52:14.575Z,20.39
2022-08-02T04:54:16.819Z,20.45
2022-08-02T04:56:18.706Z,20.43
2022-08-02T05:00:42.734Z,20.58
2022-08-02T05:02:44.538Z,20.67
2022-08-02T05:04:46.793Z,20.70
2022-08-02T05:06:48.580Z,20.83
2022-08-02T05:08:52.744Z,20.85
2022-08-02T05:10:55.253Z,20.93
2022-08-02T05:12:57.136Z,20.99
2022-08-02T05:14:58.902Z,21.06
2022-08-02T05:17:00.881Z,21.15
2022-08-02T05:19:03.372Z,21.27
2022-08-02T05:21:05.296Z,21.14
2022-08-02T05:23:07.097Z,21.19
2022-08-02T05:25:09.845Z,21.35
2022-08-02T05:27:16.990Z,21.49
2022-08-02T05:29:23.780Z,21.64
2022-08-02T05:31:25.723Z,21.78
2022-08-02T05:33:27.584Z,21.81
2022-08-02T05:35:29.341Z,21.85
2022-08-02T05:37:33.010Z,21.98
2022-08-02T05:39:35.088Z,22.08
2022-08-02T05:41:38.920Z,22.09
2022-08-02T05:43:40.768Z,22.11
2022-08-02T05:45:42.531Z,22.27
2022-08-02T05:47:44.411Z,22.43
2022-08-02T05:49:46.596Z,22.50
2022-08-02T05:52:11.264Z,22.49
2022-08-02T05:54:23.497Z,22.49
2022-08-02T05:56:38.863Z,22.35
2022-08-02T05:58:53.558Z,22.55
2022-08-02T06:00:56.907Z,22.71
2022-08-02T06:03:07.558Z,22.86
2022-08-02T06:05:09.380Z,23.01
2022-08-02T06:07:12.747Z,23.15
2022-08-02T06:09:23.201Z,23.28
2022-08-02T06:11:41.820Z,23.38
2022-08-02T06:14:07.982Z,23.49
2022-08-02T06:16:14.186Z,23.63
2022-08-02T06:18:17.670Z,23.74
2022-08-02T06:20:20.597Z,23.83
2022-08-02T06:22:32.271Z,23.86
2022-08-02T06:24:37.993Z,23.93
2022-08-02T06:26:42.622Z,24.05
2022-08-02T06:28:46.666Z,24.20
2022-08-02T06:30:48.988Z,24.28
2022-08-02T06:32:54.057Z,24.39
2022-08-02T06:34:55.994Z,24.44
2022-08-02T06:37:09.134Z,24.48
2022-08-02T06:39:48.786Z,24.64
2022-08-02T06:41:52.422Z,24.77
2022-08-02T06:44:42.345Z,24.90
2022-08-02T06:46:54.389Z,25.06
2022-08-02T06:48:52.972Z,25.19
2022-08-02T06:50:54.848Z,25.26
2022-08-02T06:52:57.179Z,25.36
2022-08-02T06:55:01.458Z,25.51
2022-08-02T06:57:03.282Z,25.68
2022-08-02T06:59:06.176Z,25.82
2022-08-02T07:01:09.830Z,25.95
2022-08-02T07:03:11.893Z,26.04
2022-08-02T07:05:13.859Z,26.17
2022-08-02T07:07:15.758Z,26.27
2022-08-02T07:09:21.004Z,26.36
2022-08-02T07:11:24.107Z,26.48
2022-08-02T07:13:25.949Z,26.61
2022-08-02T07:15:27.960Z,26.70
2022-08-02T07:17:30.318Z,26.78
2022-08-02T07:19:37.533Z,26.81
2022-08-02T07:21:59.416Z,26.92
2022-08-02T07:24:01.863Z,27.06
2022-08-02T07:26:05.337Z,27.15
2022-08-02T07:28:16.840Z,27.21
2022-08-02T07:30:25.630Z,27.26
2022-08-02T07:32:30.866Z,27.35
2022-08-02T07:34:32.726Z,27.49
2022-08-02T07:36:34.683Z,27.48
2022-08-02T07:38:37.574Z,27.55
2022-08-02T07:40:39.553Z,27.62
2022-08-02T07:42:43.530Z,27.64
2022-08-02T07:44:49.127Z,27.65
2022-08-02T07:46:51.170Z,27.69
2022-08-02T07:48:54.859Z,27.73
2022-08-02T07:50:57.699Z,27.83
2022-08-02T07:52:59.564Z,27.86
2022-08-02T07:55:01.496Z,27.95
2022-08-02T07:57:03.751Z,28.05
2022-08-02T07:59:05.658Z,28.13
2022-08-02T08:01:07.848Z,28.22
2022-08-02T08:03:09.848Z,28.30
2022-08-02T08:05:12.256Z,28.30
2022-08-02T08:07:14.083Z,28.30
2022-08-02T08:09:15.952Z,28.34
2022-08-02T08:11:18.212Z,28.42
2022-08-02T08:13:19.988Z,28.48
2022-08-02T08:15:21.948Z,28.43
2022-08-02T08:17:23.748Z,28.53
2022-08-02T08:19:50.138Z,28.68
2022-08-02T08:21:47.940Z,28.86
2022-08-02T08:23:50.461Z,28.92
2022-08-02T08:25:52.248Z,28.95
2022-08-02T08:27:54.233Z,28.99
2022-08-02T08:29:56.133Z,29.08
2022-08-02T08:31:58.374Z,29.16
2022-08-02T08:34:01.196Z,29.20
2022-08-02T08:36:04.388Z,29.27
2022-08-02T08:38:07.903Z,29.33
2022-08-02T08:40:11.219Z,29.37
2022-08-02T08:42:13.361Z,29.47
2022-08-02T08:44:15.321Z,29.59
2022-08-02T08:46:29.480Z,29.63
2022-08-02T08:48:35.605Z,29.76
2022-08-02T08:50:43.181Z,29.79
2022-08-02T08:53:08.803Z,29.86
2022-08-02T08:55:16.125Z,29.93
2022-08-02T08:57:20.376Z,29.96
2022-08-02T08:59:22.249Z,30.09
2022-08-02T09:01:24.147Z,30.18
2022-08-02T09:03:26.028Z,30.24
2022-08-02T09:05:28.308Z,30.20
2022-08-02T09:07:30.272Z,30.19
2022-08-02T09:09:31.994Z,30.16
2022-08-02T09:11:33.889Z,30.17
2022-08-02T09:13:44.961Z,30.21
2022-08-02T09:15:54.232Z,30.22
2022-08-02T09:17:55.945Z,30.33
2022-08-02T09:20:08.586Z,30.33
2022-08-02T09:22:12.199Z,30.41
2022-08-02T09:24:22.439Z,30.41
2022-08-02T09:26:24.463Z,30.53
2022-08-02T09:28:28.846Z,30.55
2022-08-02T09:30:31.350Z,30.67
2022-08-02T09:32:45.660Z,30.66
2022-08-02T09:34:49.976Z,30.72
2022-08-02T09:36:54.770Z,30.78
2022-08-02T09:39:03.095Z,30.77
2022-08-02T09:41:21.881Z,30.79
2022-08-02T09:43:57.933Z,30.87
2022-08-02T09:46:10.974Z,30.92
2022-08-02T09:48:12.886Z,30.95
2022-08-02T09:50:15.141Z,31.00
2022-08-02T09:52:37.343Z,30.83
2022-08-02T09:54:45.458Z,30.93
2022-08-02T09:56:50.018Z,31.03
2022-08-02T09:58:55.155Z,31.15
2022-08-02T10:01:01.804Z,31.16
2022-08-02T10:03:21.475Z,31.16
2022-08-02T10:05:35.589Z,31.15
2022-08-02T10:07:44.832Z,31.20
2022-08-02T10:09:48.631Z,31.28
2022-08-02T10:11:52.036Z,31.27
2022-08-02T10:13:54.226Z,31.28
2022-08-02T10:15:59.525Z,31.25
2022-08-02T10:18:09.404Z,31.34
2022-08-02T10:20:23.952Z,31.32
2022-08-02T10:22:26.197Z,31.39
2022-08-02T10:24:30.531Z,31.43
2022-08-02T10:26:32.907Z,31.38
2022-08-02T10:28:36.330Z,31.40
2022-08-02T10:30:41.010Z,31.51
2022-08-02T10:32:46.196Z,31.49
2022-08-02T10:35:18.683Z,31.41
2022-08-02T10:37:26.987Z,31.48
2022-08-02T10:39:29.132Z,31.60
2022-08-02T10:41:49.641Z,31.62
2022-08-02T10:43:51.458Z,31.70
2022-08-02T10:45:53.243Z,31.71
2022-08-02T10:48:06.165Z,31.73
2022-08-02T10:50:09.075Z,31.78
2022-08-02T10:52:14.333Z,31.79
2022-08-02T10:54:21.654Z,31.82
2022-08-02T10:56:47.173Z,31.80
2022-08-02T10:59:29.454Z,31.79
2022-08-02T11:01:38.634Z,31.83
2022-08-02T11:03:41.669Z,31.86
2022-08-02T11:05:43.989Z,31.88
2022-08-02T11:07:49.636Z,31.85
2022-08-02T11:09:51.640Z,31.86
2022-08-02T11:12:07.917Z,31.79
2022-08-02T11:14:14.659Z,31.81
2022-08-02T11:16:16.491Z,31.79
2022-08-02T11:18:19.530Z,31.92
2022-08-02T11:20:23.523Z,31.95
2022-08-02T11:22:26.066Z,32.00
2022-08-02T11:24:34.871Z,32.02
2022-08-02T11:26:37.872Z,32.00
2022-08-02T11:28:39.772Z,32.07
2022-08-02T11:30:42.122Z,32.15
2022-08-02T11:32:44.077Z,32.20
2022-08-02T11:34:48.728Z,32.27
2022-08-02T11:36:52.210Z,32.16
2022-08-02T11:39:15.754Z,32.16
2022-08-02T11:41:47.035Z,32.25
2022-08-02T11:43:44.570Z,32.32
2022-08-02T11:45:47.040Z,32.29
2022-08-02T11:47:51.365Z,32.35
2022-08-02T11:50:03.629Z,32.40
2022-08-02T11:52:07.216Z,32.41
2022-08-02T11:54:09.420Z,32.49
2022-08-02T11:56:12.503Z,32.55
2022-08-02T11:58:14.369Z,32.59
2022-08-02T12:00:18.490Z,32.64
2022-08-02T12:02:22.733Z,32.71
2022-08-02T12:04:24.542Z,32.77
2022-08-02T12:06:31.338Z,32.81
2022-08-02T12:08:34.024Z,32.69
2022-08-02T12:10:36.009Z,32.65
2022-08-02T12:12:54.418Z,32.60
2022-08-02T12:14:56.237Z,32.66
2022-08-02T12:17:17.322Z,32.61
2022-08-02T12:19:19.681Z,32.58
2022-08-02T12:21:26.796Z,32.70
2022-08-02T12:23:28.911Z,32.80
2022-08-02T12:25:35.467Z,32.82
2022-08-02T12:27:41.395Z,32.85
2022-08-02T12:29:57.636Z,32.85
2022-08-02T12:32:02.091Z,32.88
2022-08-02T12:34:15.093Z,32.90
2022-08-02T12:36:19.962Z,32.80
2022-08-02T12:38:22.582Z,32.79
2022-08-02T12:40:32.667Z,32.77
2022-08-02T12:42:48.635Z,32.75
2022-08-02T12:45:01.285Z,32.70
2022-08-02T12:47:09.806Z,32.59
2022-08-02T12:49:18.370Z,32.56
2022-08-02T12:51:50.782Z,32.59
2022-08-02T12:54:13.060Z,32.69
2022-08-02T12:56:36.927Z,32.74
2022-08-02T12:58:51.740Z,32.80
2022-08-02T13:00:58.804Z,32.92
2022-08-02T13:03:00.998Z,32.99
2022-08-02T13:05:02.982Z,33.03
2022-08-02T13:07:05.366Z,33.00
2022-08-02T13:09:16.256Z,32.93
2022-08-02T13:11:18.219Z,32.88
2022-08-02T13:13:20.352Z,32.93
2022-08-02T13:15:50.405Z,32.99
2022-08-02T13:17:44.906Z,33.03
2022-08-02T13:19:51.020Z,32.95
2022-08-02T13:22:11.314Z,32.91
2022-08-02T13:24:23.279Z,32.95
2022-08-02T13:26:38.058Z,32.89
2022-08-02T13:28:42.746Z,32.88
2022-08-02T13:30:46.313Z,32.97
2022-08-02T13:32:48.240Z,32.92
2022-08-02T13:34:50.766Z,32.87
2022-08-02T13:36:52.556Z,32.85
2022-08-02T13:38:54.374Z,32.91
2022-08-02T13:41:12.740Z,32.98
2022-08-02T13:43:14.536Z,32.94
2022-08-02T13:45:16.510Z,32.95
2022-08-02T13:47:26.612Z,32.94
2022-08-02T13:49:51.032Z,32.96
2022-08-02T13:51:55.040Z,32.88
2022-08-02T13:53:56.817Z,32.83
2022-08-02T13:55:58.988Z,32.81
2022-08-02T13:58:00.927Z,32.83
2022-08-02T14:00:03.230Z,32.82
2022-08-02T14:02:07.302Z,32.89
2022-08-02T14:04:09.676Z,32.92
2022-08-02T14:06:11.612Z,32.92
2022-08-02T14:08:16.566Z,32.84
2022-08-02T14:10:19.175Z,32.89
2022-08-02T14:12:21.090Z,32.91
2022-08-02T14:14:22.964Z,32.89
2022-08-02T14:16:30.384Z,32.85
2022-08-02T14:18:35.247Z,32.85
2022-08-02T14:20:37.219Z,32.82
2022-08-02T14:22:39.169Z,32.81
2022-08-02T14:24:41.787Z,32.84
2022-08-02T14:26:44.584Z,32.84
2022-08-02T14:28:49.930Z,32.94
2022-08-02T14:30:53.209Z,32.93
2022-08-02T14:32:55.161Z,32.93
2022-08-02T14:34:56.946Z,32.98
2022-08-02T14:36:58.695Z,33.00
2022-08-02T14:39:01.983Z,33.00
2022-08-02T14:41:04.024Z,32.98
2022-08-02T14:43:05.926Z,32.96
2022-08-02T14:45:10.627Z,32.81
2022-08-02T14:47:13.420Z,32.78
2022-08-02T14:49:25.919Z,32.69
2022-08-02T14:51:31.692Z,32.76
2022-08-02T14:53:38.072Z,32.79
2022-08-02T14:55:51.627Z,32.87
2022-08-02T14:57:53.407Z,32.88
2022-08-02T14:59:55.277Z,32.85
2022-08-02T15:01:57.560Z,32.85
2022-08-02T15:03:59.530Z,32.85
2022-08-02T15:06:01.547Z,32.82
2022-08-02T15:08:03.498Z,32.75
2022-08-02T15:10:05.851Z,32.68
2022-08-02T15:12:09.171Z,32.67
2022-08-02T15:14:11.392Z,32.66
2022-08-02T15:16:13.350Z,32.63
2022-08-02T15:18:15.233Z,32.58
2022-08-02T15:20:25.640Z,32.58
2022-08-02T15:22:28.952Z,32.57
2022-08-02T15:24:31.289Z,32.61
2022-08-02T15:26:33.150Z,32.69
2022-08-02T15:28:35.532Z,32.73
2022-08-02T15:30:38.372Z,32.76
2022-08-02T15:32:40.175Z,32.73
2022-08-02T15:34:55.392Z,32.73
2022-08-02T15:36:57.231Z,32.73
2022-08-02T15:38:59.175Z,32.67
2022-08-02T15:41:01.660Z,32.63
2022-08-02T15:43:03.730Z,32.58
2022-08-02T15:45:06.042Z,32.62
2022-08-02T15:47:08.269Z,32.59
2022-08-02T15:49:10.194Z,32.54
2022-08-02T15:51:12.129Z,32.49
2022-08-02T15:53:13.937Z,32.46
2022-08-02T15:55:16.075Z,32.44
2022-08-02T15:57:17.967Z,32.41
2022-08-02T15:59:19.759Z,32.46
2022-08-02T16:01:21.852Z,32.50
2022-08-02T16:03:23.710Z,32.52
2022-08-02T16:05:25.598Z,32.58
2022-08-02T16:07:27.400Z,32.66
2022-08-02T16:09:29.328Z,32.72
2022-08-02T16:11:31.506Z,32.70
2022-08-02T16:13:54.488Z,32.73
2022-08-02T16:15:57.512Z,32.60
2022-08-02T16:17:59.626Z,32.52
2022-08-02T16:20:01.941Z,32.50
2022-08-02T16:22:03.764Z,32.49
2022-08-02T16:24:05.777Z,32.61
2022-08-02T16:26:07.681Z,32.70
2022-08-02T16:28:09.431Z,32.71
2022-08-02T16:30:12.100Z,32.72
2022-08-02T16:32:15.959Z,32.75
2022-08-02T16:34:18.176Z,32.73
2022-08-02T16:36:20.133Z,32.70
2022-08-02T16:38:22.252Z,32.66
2022-08-02T16:40:24.277Z,32.63
2022-08-02T16:42:26.048Z,32.61
2022-08-02T16:44:30.121Z,32.56
2022-08-02T16:46:32.356Z,32.57
2022-08-02T16:48:34.170Z,32.60
2022-08-02T16:50:36.412Z,32.61
2022-08-02T16:52:38.746Z,32.57
2022-08-02T16:54:41.485Z,32.53
2022-08-02T16:56:43.383Z,32.32
2022-08-02T16:58:45.208Z,32.27
2022-08-02T17:00:49.724Z,32.26
2022-08-02T17:02:52.167Z,32.18
2022-08-02T17:04:54.040Z,32.19
2022-08-02T17:06:55.771Z,32.19
2022-08-02T17:08:59.718Z,32.14
2022-08-02T17:11:03.211Z,32.13
2022-08-02T17:13:11.273Z,32.13
2022-08-02T17:16:07.539Z,32.05
2022-08-02T17:17:39.335Z,32.06
2022-08-02T17:19:43.711Z,32.03
2022-08-02T17:21:45.586Z,32.02
2022-08-02T17:24:08.356Z,31.99
2022-08-02T17:26:09.450Z,31.95
2022-08-02T17:28:11.369Z,31.90
2022-08-02T17:30:13.702Z,31.84
2022-08-02T17:32:18.200Z,31.79
2022-08-02T17:34:26.951Z,31.75
2022-08-02T17:36:28.989Z,31.73
2022-08-02T17:38:31.377Z,31.73
2022-08-02T17:40:33.109Z,31.73
2022-08-02T17:42:35.640Z,31.62
2022-08-02T17:44:38.389Z,31.69
2022-08-02T17:46:40.468Z,31.76
2022-08-02T17:49:00.964Z,31.65
2022-08-02T17:51:04.253Z,31.54
2022-08-02T17:53:06.061Z,31.38
2022-08-02T17:55:10.688Z,31.31
2022-08-02T17:57:12.966Z,31.25
2022-08-02T17:59:31.239Z,31.31
2022-08-02T18:01:52.446Z,31.18
2022-08-02T18:03:54.775Z,31.07
2022-08-02T18:05:56.538Z,31.07
2022-08-02T18:08:00.799Z,30.93
2022-08-02T18:10:03.287Z,30.95
2022-08-02T18:12:06.740Z,30.88
2022-08-02T18:14:08.510Z,30.85
2022-08-02T18:16:20.923Z,30.79
2022-08-02T18:18:30.115Z,30.77
2022-08-02T18:20:32.626Z,30.83
2022-08-02T18:22:34.475Z,30.74
2022-08-02T18:24:37.393Z,30.70
2022-08-02T18:26:43.509Z,30.64
2022-08-02T18:28:45.862Z,30.54
2022-08-02T18:30:48.263Z,30.57
2022-08-02T18:33:56.938Z,30.55
2022-08-02T18:35:12.692Z,30.59
2022-08-02T18:37:14.556Z,30.57
2022-08-02T18:39:19.578Z,30.53
2022-08-02T18:41:21.662Z,30.47
2022-08-02T18:43:25.432Z,30.48
2022-08-02T18:46:05.902Z,30.43
2022-08-02T18:47:51.434Z,30.31
2022-08-02T18:49:56.267Z,30.20
2022-08-02T18:51:58.351Z,30.14
2022-08-02T18:54:01.284Z,30.15
2022-08-02T18:56:05.210Z,30.19
2022-08-02T18:58:19.675Z,30.20
2022-08-02T19:00:25.588Z,30.18
2022-08-02T19:02:28.391Z,30.20
2022-08-02T19:04:31.306Z,30.19
2022-08-02T19:06:34.947Z,30.15
2022-08-02T19:08:36.817Z,30.08
2022-08-02T19:10:40.034Z,30.10
2022-08-02T19:12:51.666Z,30.09
2022-08-02T19:14:53.567Z,30.05
2022-08-02T19:16:57.964Z,29.97
2022-08-02T19:19:02.652Z,29.95
2022-08-02T19:21:07.338Z,29.87
2022-08-02T19:23:10.607Z,29.87
2022-08-02T19:25:17.817Z,29.85
2022-08-02T19:27:25.797Z,29.82
2022-08-02T19:29:42.920Z,29.69
2022-08-02T19:32:00.154Z,29.66
2022-08-02T19:34:07.230Z,29.66
2022-08-02T19:36:09.894Z,29.65
2022-08-02T19:38:13.725Z,29.59
2022-08-02T19:40:20.689Z,29.57
2022-08-02T19:42:25.076Z,29.55
2022-08-02T19:44:29.575Z,29.52
2022-08-02T19:46:31.660Z,29.49
2022-08-02T19:48:33.643Z,29.41
2022-08-02T19:50:35.486Z,29.44
2022-08-02T19:52:37.527Z,29.39
2022-08-02T19:54:54.926Z,29.33
2022-08-02T19:56:58.452Z,29.32
2022-08-02T19:59:00.940Z,29.24
2022-08-02T20:01:16.831Z,29.29
2022-08-02T20:03:19.696Z,29.28
2022-08-02T20:05:41.653Z,29.22
2022-08-02T20:07:54.344Z,29.18
2022-08-02T20:09:58.336Z,29.15
2022-08-02T20:12:00.186Z,29.15
2022-08-02T20:14:04.261Z,29.12
2022-08-02T20:16:06.266Z,29.06
2022-08-02T20:18:09.373Z,29.05
2022-08-02T20:20:12.365Z,29.05
2022-08-02T20:22:15.931Z,29.02
2022-08-02T20:24:18.255Z,29.00
2022-08-02T20:26:20.203Z,28.98
2022-08-02T20:28:23.957Z,28.95
2022-08-02T20:30:26.449Z,28.87
2022-08-02T20:32:28.250Z,28.84
2022-08-02T20:34:30.305Z,28.77
2022-08-02T20:36:32.175Z,28.74
2022-08-02T20:38:34.154Z,28.68
2022-08-02T20:40:36.126Z,28.68
2022-08-02T20:42:38.399Z,28.65
2022-08-02T20:44:40.913Z,28.64
2022-08-02T20:46:44.104Z,28.59
2022-08-02T20:48:45.912Z,28.58
2022-08-02T20:50:54.349Z,28.51
2022-08-02T20:52:56.211Z,28.42
2022-08-02T20:54:58.027Z,28.21
2022-08-02T20:56:59.763Z,28.12
2022-08-02T20:59:16.039Z,28.11
2022-08-02T21:01:18.123Z,28.13
2022-08-02T21:03:23.684Z,28.10
2022-08-02T21:05:43.234Z,28.04
2022-08-02T21:07:53.330Z,27.99
2022-08-02T21:09:55.553Z,27.95
2022-08-02T21:11:57.521Z,27.91
2022-08-02T21:14:07.773Z,27.92
2022-08-02T21:16:13.691Z,27.90
2022-08-02T21:18:21.496Z,27.83
2022-08-02T21:20:35.252Z,27.78
2022-08-02T21:22:37.249Z,27.76
2022-08-02T21:24:39.031Z,27.69
2022-08-02T21:26:40.890Z,27.48
2022-08-02T21:28:45.269Z,27.34
2022-08-02T21:30:47.175Z,27.38
2022-08-02T21:32:54.714Z,27.42
2022-08-02T21:34:58.848Z,27.41
2022-08-02T21:37:00.672Z,27.45
2022-08-02T21:39:12.326Z,27.45
2022-08-02T21:41:14.356Z,27.46
2022-08-02T21:43:21.512Z,27.45
2022-08-02T21:45:40.373Z,27.44
2022-08-02T21:47:55.729Z,27.40
2022-08-02T21:50:10.353Z,27.38
2022-08-02T21:52:16.530Z,27.33
2022-08-02T21:54:20.872Z,27.17
2022-08-02T21:56:23.850Z,27.12
2022-08-02T21:58:25.808Z,27.03
2022-08-02T22:00:29.501Z,27.02
2022-08-02T22:02:31.432Z,26.88
2022-08-02T22:04:33.268Z,26.87
2022-08-02T22:06:35.411Z,26.86
2022-08-02T22:08:38.290Z,26.85
2022-08-02T22:10:58.892Z,26.83
2022-08-02T22:13:01.661Z,26.83
2022-08-02T22:15:06.007Z,26.82
2022-08-02T22:17:13.739Z,26.81
2022-08-02T22:19:15.827Z,26.80
2022-08-02T22:21:18.072Z,26.77
2022-08-02T22:23:22.710Z,26.74
2022-08-02T22:25:40.965Z,26.69
2022-08-02T22:28:34.773Z,26.64
2022-08-02T22:30:05.319Z,26.60
2022-08-02T22:32:07.547Z,26.59
2022-08-02T22:34:11.668Z,26.55
2022-08-02T22:36:38.608Z,26.52
2022-08-02T22:38:46.454Z,26.45
2022-08-02T22:40:49.503Z,26.44
2022-08-02T22:42:51.252Z,26.42
2022-08-02T22:44:53.099Z,26.39
2022-08-02T22:46:55.026Z,26.36
2022-08-02T22:48:57.112Z,26.32
2022-08-02T22:50:59.129Z,26.25
2022-08-02T22:53:03.027Z,26.18
2022-08-02T22:55:05.444Z,26.10
2022-08-02T22:57:11.420Z,26.08
2022-08-02T22:59:21.072Z,26.05
2022-08-02T23:01:35.594Z,26.01
2022-08-02T23:03:39.240Z,26.01
2022-08-02T23:05:41.526Z,26.00
2022-08-02T23:07:43.420Z,26.00
2022-08-02T23:09:45.304Z,25.95
2022-08-02T23:11:47.062Z,25.91
2022-08-02T23:13:48.857Z,25.91
2022-08-02T23:16:09.231Z,25.89
2022-08-02T23:18:29.796Z,25.85
2022-08-02T23:20:31.717Z,25.82
2022-08-02T23:22:33.482Z,25.82
2022-08-02T23:24:35.510Z,25.77
2022-08-02T23:26:37.437Z,25.74
2022-08-02T23:28:39.299Z,25.67
2022-08-02T23:30:41.098Z,25.64
2022-08-02T23:32:42.903Z,25.60
2022-08-02T23:34:45.614Z,25.57
2022-08-02T23:36:47.430Z,25.54
2022-08-02T23:38:49.375Z,25.50
2022-08-02T23:40:51.261Z,25.46
2022-08-02T23:42:53.051Z,25.43
2022-08-02T23:44:55.338Z,25.37
2022-08-02T23:46:58.015Z,25.35
2022-08-02T23:48:59.980Z,25.27
2022-08-02T23:51:01.762Z,25.26
2022-08-02T23:53:03.967Z,25.21
2022-08-02T23:55:06.384Z,25.16
2022-08-02T23:57:20.157Z,25.11
2022-08-02T23:59:23.165Z,25.08
